createdAt,value
2023-08-15T00:01:27.816Z,3.04
2023-08-15T00:02:59.400Z,2.80
2023-08-15T00:04:31.024Z,2.83
2023-08-15T00:06:02.449Z,2.80
2023-08-15T00:07:33.915Z,2.70
2023-08-15T00:09:05.488Z,2.81
2023-08-15T00:10:37.230Z,2.89
2023-08-15T00:12:08.736Z,2.81
2023-08-15T00:13:40.276Z,2.90
2023-08-15T00:15:11.862Z,2.77
2023-08-15T00:16:43.388Z,2.90
2023-08-15T00:18:14.995Z,3.01
2023-08-15T00:19:46.783Z,3.01
2023-08-15T00:21:18.239Z,3.12
2023-08-15T00:22:49.830Z,2.75
2023-08-15T00:24:21.210Z,2.96
2023-08-15T00:25:52.692Z,2.90
2023-08-15T00:27:24.339Z,2.72
2023-08-15T00:28:55.832Z,2.70
2023-08-15T00:30:27.328Z,2.87
2023-08-15T00:31:58.765Z,2.91
2023-08-15T00:33:30.319Z,3.12
2023-08-15T00:35:01.819Z,3.02
2023-08-15T00:36:33.234Z,2.97
2023-08-15T00:38:04.692Z,2.79
2023-08-15T00:39:36.101Z,2.86
2023-08-15T00:41:07.561Z,2.97
2023-08-15T00:42:38.965Z,3.03
2023-08-15T00:44:10.428Z,2.87
2023-08-15T00:45:41.841Z,2.86
2023-08-15T00:47:13.256Z,2.98
2023-08-15T00:48:44.675Z,3.29
2023-08-15T00:50:16.260Z,3.05
2023-08-15T00:51:50.660Z,2.98
2023-08-15T00:53:22.726Z,3.09
2023-08-15T00:54:54.183Z,3.19
2023-08-15T00:56:25.598Z,3.05
2023-08-15T00:57:57.014Z,3.05
2023-08-15T00:59:28.462Z,3.01
2023-08-15T01:00:59.944Z,2.90
2023-08-15T01:02:31.882Z,3.08
2023-08-15T01:04:03.373Z,3.01
2023-08-15T01:05:35.025Z,3.11
2023-08-15T01:07:07.095Z,3.06
2023-08-15T01:08:38.533Z,3.05
2023-08-15T01:10:10.282Z,3.07
2023-08-15T01:11:41.883Z,3.02
2023-08-15T01:13:13.309Z,3.06
2023-08-15T01:14:44.746Z,3.28
2023-08-15T01:16:16.420Z,3.05
2023-08-15T01:17:47.993Z,3.00
2023-08-15T01:19:19.812Z,2.96
2023-08-15T01:20:51.546Z,3.17
2023-08-15T01:22:23.066Z,2.84
2023-08-15T01:23:54.632Z,2.87
2023-08-15T01:25:26.140Z,2.95
2023-08-15T01:26:58.057Z,2.81
2023-08-15T01:28:29.627Z,3.03
2023-08-15T01:30:01.067Z,3.28
2023-08-15T01:31:32.512Z,3.27
2023-08-15T01:33:04.046Z,3.12
2023-08-15T01:34:35.653Z,3.05
2023-08-15T01:36:07.153Z,2.88
2023-08-15T01:37:38.612Z,3.02
2023-08-15T01:39:10.022Z,2.94
2023-08-15T01:40:41.568Z,3.03
2023-08-15T01:42:12.938Z,2.86
2023-08-15T01:43:44.530Z,2.99
2023-08-15T01:45:16.123Z,3.22
2023-08-15T01:46:47.517Z,3.03
2023-08-15T01:48:18.992Z,2.92
2023-08-15T01:49:50.404Z,3.16
2023-08-15T01:51:21.895Z,3.01
2023-08-15T01:52:53.365Z,3.13
2023-08-15T01:54:24.775Z,3.12
2023-08-15T01:55:56.320Z,3.05
2023-08-15T01:57:27.760Z,3.05
2023-08-15T01:58:59.221Z,3.00
2023-08-15T02:00:30.701Z,3.16
2023-08-15T02:02:02.108Z,3.10
2023-08-15T02:03:33.653Z,2.99
2023-08-15T02:05:05.162Z,2.93
2023-08-15T02:06:36.659Z,3.27
2023-08-15T02:08:08.388Z,3.40
2023-08-15T02:09:40.151Z,3.04
2023-08-15T02:11:11.606Z,3.04
2023-08-15T02:12:43.137Z,2.97
2023-08-15T02:14:14.537Z,3.32
2023-08-15T02:15:46.306Z,2.98
2023-08-15T02:17:17.938Z,2.81
2023-08-15T02:18:49.709Z,2.89
2023-08-15T02:20:21.205Z,2.84
2023-08-15T02:21:52.618Z,2.84
2023-08-15T02:23:24.164Z,3.04
2023-08-15T02:24:55.610Z,3.01
2023-08-15T02:26:27.127Z,2.97
2023-08-15T02:27:58.576Z,3.15
2023-08-15T02:29:30.022Z,3.02
2023-08-15T02:31:01.624Z,2.88
2023-08-15T02:32:33.225Z,3.03
2023-08-15T02:34:05.062Z,2.96
2023-08-15T02:35:36.509Z,3.09
2023-08-15T02:37:08.021Z,2.87
2023-08-15T02:38:39.495Z,2.95
2023-08-15T02:40:10.943Z,2.91
2023-08-15T02:41:42.661Z,3.03
2023-08-15T02:43:14.076Z,2.89
2023-08-15T02:44:45.566Z,2.73
2023-08-15T02:46:17.074Z,2.77
2023-08-15T02:47:48.660Z,2.95
2023-08-15T02:49:20.209Z,2.82
2023-08-15T02:50:51.684Z,2.94
2023-08-15T02:52:23.312Z,3.21
2023-08-15T02:53:54.951Z,3.14
2023-08-15T02:55:26.752Z,3.06
2023-08-15T02:56:58.173Z,2.68
2023-08-15T02:58:29.631Z,2.84
2023-08-15T03:00:01.154Z,2.83
2023-08-15T03:01:32.628Z,2.90
2023-08-15T03:03:04.125Z,3.14
2023-08-15T03:04:35.622Z,2.81
2023-08-15T03:06:07.041Z,2.79
2023-08-15T03:07:38.747Z,3.01
2023-08-15T03:09:10.267Z,2.90
2023-08-15T03:10:41.854Z,3.14
2023-08-15T03:12:13.778Z,2.91
2023-08-15T03:13:45.492Z,2.99
2023-08-15T03:15:16.930Z,2.66
2023-08-15T03:16:48.435Z,2.96
2023-08-15T03:18:19.914Z,2.85
2023-08-15T03:19:51.337Z,2.76
2023-08-15T03:21:22.900Z,3.00
2023-08-15T03:22:54.377Z,2.60
2023-08-15T03:24:25.780Z,2.95
2023-08-15T03:25:57.266Z,2.94
2023-08-15T03:27:28.793Z,2.95
2023-08-15T03:29:00.345Z,3.08
2023-08-15T03:30:31.823Z,3.23
2023-08-15T03:32:03.719Z,3.04
2023-08-15T03:33:35.239Z,3.07
2023-08-15T03:35:06.655Z,3.00
2023-08-15T03:36:38.133Z,2.99
2023-08-15T03:38:09.554Z,3.18
2023-08-15T03:39:41.076Z,3.30
2023-08-15T03:41:12.671Z,3.23
2023-08-15T03:42:44.130Z,3.11
2023-08-15T03:44:15.536Z,3.02
2023-08-15T03:45:47.064Z,3.30
2023-08-15T03:47:18.774Z,3.50
2023-08-15T03:48:50.409Z,3.38
2023-08-15T03:50:21.882Z,3.60
2023-08-15T03:51:53.351Z,3.72
2023-08-15T03:53:24.851Z,3.62
2023-08-15T03:54:56.354Z,3.67
2023-08-15T03:56:27.783Z,3.69
2023-08-15T03:57:59.173Z,3.82
2023-08-15T03:59:30.596Z,3.79
2023-08-15T04:01:01.997Z,3.87
2023-08-15T04:02:33.467Z,3.72
2023-08-15T04:04:05.150Z,4.24
2023-08-15T04:05:36.598Z,4.40
2023-08-15T04:07:07.998Z,4.45
2023-08-15T04:08:44.500Z,4.51
2023-08-15T04:10:16.052Z,4.89
2023-08-15T04:11:47.532Z,4.71
2023-08-15T04:13:20.164Z,4.77
2023-08-15T04:14:51.657Z,5.13
2023-08-15T04:16:23.172Z,5.22
2023-08-15T04:17:55.334Z,5.19
2023-08-15T04:19:26.848Z,4.90
2023-08-15T04:20:58.488Z,4.89
2023-08-15T04:22:30.039Z,5.04
2023-08-15T04:24:01.469Z,5.45
2023-08-15T04:25:32.923Z,5.32
2023-08-15T04:27:04.554Z,5.17
2023-08-15T04:28:35.922Z,5.27
2023-08-15T04:30:07.492Z,5.08
2023-08-15T04:31:38.950Z,5.21
2023-08-15T04:33:10.420Z,5.36
2023-08-15T04:34:42.104Z,5.09
2023-08-15T04:36:13.544Z,5.32
2023-08-15T04:37:45.089Z,5.58
2023-08-15T04:39:16.503Z,5.00
2023-08-15T04:40:47.998Z,4.80
2023-08-15T04:42:19.652Z,4.94
2023-08-15T04:43:51.064Z,5.10
2023-08-15T04:45:22.632Z,4.71
2023-08-15T04:46:54.037Z,4.84
2023-08-15T04:48:25.493Z,5.19
2023-08-15T04:49:56.965Z,4.59
2023-08-15T04:51:28.442Z,4.91
2023-08-15T04:53:00.029Z,4.90
2023-08-15T04:54:31.612Z,4.97
2023-08-15T04:56:03.130Z,5.23
2023-08-15T04:57:34.744Z,4.97
2023-08-15T04:59:06.265Z,5.34
2023-08-15T05:00:37.724Z,4.98
2023-08-15T05:02:09.236Z,5.14
2023-08-15T05:03:40.643Z,5.31
2023-08-15T05:05:12.156Z,5.12
2023-08-15T05:06:43.720Z,5.10
2023-08-15T05:08:15.508Z,5.22
2023-08-15T05:09:47.022Z,5.39
2023-08-15T05:11:18.391Z,5.19
2023-08-15T05:12:49.891Z,5.49
2023-08-15T05:14:21.303Z,5.71
2023-08-15T05:15:52.848Z,5.41
2023-08-15T05:17:24.311Z,6.06
2023-08-15T05:18:55.829Z,5.70
2023-08-15T05:20:27.462Z,5.60
2023-08-15T05:21:58.900Z,5.67
2023-08-15T05:23:30.503Z,5.16
2023-08-15T05:25:02.007Z,5.32
2023-08-15T05:26:33.630Z,5.45
2023-08-15T05:28:05.165Z,5.49
2023-08-15T05:29:36.619Z,5.64
2023-08-15T05:31:09.216Z,5.42
2023-08-15T05:32:40.787Z,5.39
2023-08-15T05:34:12.376Z,5.62
2023-08-15T05:35:43.781Z,5.48
2023-08-15T05:37:15.176Z,5.47
2023-08-15T05:38:46.653Z,5.62
2023-08-15T05:40:18.052Z,5.33
2023-08-15T05:41:49.645Z,5.60
2023-08-15T05:43:21.059Z,5.07
2023-08-15T05:44:52.527Z,5.43
2023-08-15T05:46:23.976Z,5.48
2023-08-15T05:47:55.615Z,6.11
2023-08-15T05:49:27.128Z,6.02
2023-08-15T05:50:58.689Z,5.58
2023-08-15T05:52:30.127Z,5.77
2023-08-15T05:54:01.584Z,5.53
2023-08-15T05:55:32.993Z,5.35
2023-08-15T05:57:04.445Z,5.29
2023-08-15T05:58:35.866Z,5.72
2023-08-15T06:00:07.243Z,5.99
2023-08-15T06:01:38.832Z,5.99
2023-08-15T06:03:10.485Z,5.69
2023-08-15T06:04:42.008Z,5.97
2023-08-15T06:06:13.415Z,6.03
2023-08-15T06:07:44.872Z,5.80
2023-08-15T06:09:18.634Z,5.90
2023-08-15T06:10:50.353Z,5.91
2023-08-15T06:12:21.862Z,6.01
2023-08-15T06:13:53.272Z,5.48
2023-08-15T06:15:24.687Z,5.91
2023-08-15T06:16:56.371Z,5.83
2023-08-15T06:18:27.938Z,5.55
2023-08-15T06:19:59.524Z,5.06
2023-08-15T06:21:31.251Z,5.09
2023-08-15T06:23:02.640Z,4.95
2023-08-15T06:24:34.158Z,4.76
2023-08-15T06:26:05.639Z,4.76
2023-08-15T06:27:37.044Z,4.50
2023-08-15T06:29:08.413Z,4.54
2023-08-15T06:30:40.017Z,4.27
2023-08-15T06:32:11.427Z,4.19
2023-08-15T06:33:42.847Z,4.57
2023-08-15T06:35:14.346Z,4.45
2023-08-15T06:36:46.204Z,4.27
2023-08-15T06:38:17.744Z,4.56
2023-08-15T06:39:50.668Z,4.64
2023-08-15T06:41:22.115Z,4.28
2023-08-15T06:42:53.676Z,4.29
2023-08-15T06:44:27.156Z,4.50
2023-08-15T06:45:59.218Z,4.31
2023-08-15T06:47:30.672Z,4.40
2023-08-15T06:49:02.142Z,4.24
2023-08-15T06:50:33.580Z,4.03
2023-08-15T06:52:04.961Z,4.09
2023-08-15T06:53:36.459Z,4.20
2023-08-15T06:55:07.981Z,4.03
2023-08-15T06:56:39.522Z,3.84
2023-08-15T06:58:11.018Z,3.84
2023-08-15T06:59:42.551Z,4.11
2023-08-15T07:01:14.022Z,4.42
2023-08-15T07:02:45.691Z,4.53
2023-08-15T07:04:17.241Z,4.24
2023-08-15T07:05:48.875Z,4.52
2023-08-15T07:07:20.649Z,4.85
2023-08-15T07:08:52.242Z,4.96
2023-08-15T07:10:23.682Z,4.85
2023-08-15T07:11:55.359Z,4.68
2023-08-15T07:13:26.737Z,4.67
2023-08-15T07:14:58.165Z,4.71
2023-08-15T07:16:30.170Z,5.07
2023-08-15T07:18:01.992Z,4.80
2023-08-15T07:19:33.577Z,4.78
2023-08-15T07:21:06.261Z,4.99
2023-08-15T07:22:37.705Z,4.66
2023-08-15T07:24:09.073Z,5.01
2023-08-15T07:25:40.608Z,4.93
2023-08-15T07:27:12.218Z,4.97
2023-08-15T07:28:43.688Z,4.80
2023-08-15T07:30:15.250Z,4.78
2023-08-15T07:31:47.971Z,4.94
2023-08-15T07:33:19.548Z,4.68
2023-08-15T07:34:51.115Z,4.69
2023-08-15T07:36:22.628Z,5.02
2023-08-15T07:37:54.121Z,4.78
2023-08-15T07:39:25.652Z,4.85
2023-08-15T07:40:57.218Z,5.08
2023-08-15T07:42:28.631Z,4.78
2023-08-15T07:44:00.246Z,5.23
2023-08-15T07:45:32.046Z,4.79
2023-08-15T07:47:03.696Z,4.58
2023-08-15T07:48:35.046Z,4.58
2023-08-15T07:50:06.571Z,4.49
2023-08-15T07:51:37.964Z,4.63
2023-08-15T07:53:09.422Z,4.64
2023-08-15T07:54:41.109Z,4.90
2023-08-15T07:56:12.688Z,4.82
2023-08-15T07:57:44.056Z,4.83
2023-08-15T07:59:15.477Z,5.01
2023-08-15T08:00:46.996Z,5.10
2023-08-15T08:02:18.469Z,4.93
2023-08-15T08:03:49.976Z,5.22
2023-08-15T08:05:23.355Z,5.54
2023-08-15T08:06:55.380Z,5.40
2023-08-15T08:08:26.777Z,5.47
2023-08-15T08:09:58.169Z,5.94
2023-08-15T08:11:29.586Z,5.84
2023-08-15T08:13:00.972Z,5.97
2023-08-15T08:14:32.679Z,6.29
2023-08-15T08:16:05.605Z,6.20
2023-08-15T08:17:37.093Z,6.22
2023-08-15T08:19:08.623Z,6.35
2023-08-15T08:20:40.079Z,6.10
2023-08-15T08:22:11.716Z,5.78
2023-08-15T08:23:43.137Z,6.13
2023-08-15T08:25:15.247Z,5.69
2023-08-15T08:26:47.376Z,5.67
2023-08-15T08:28:18.963Z,5.95
2023-08-15T08:29:50.482Z,6.11
2023-08-15T08:31:53.232Z,6.20
2023-08-15T08:33:24.754Z,6.23
2023-08-15T08:34:56.442Z,6.36
2023-08-15T08:36:28.090Z,6.27
2023-08-15T08:37:59.617Z,6.78
2023-08-15T08:39:32.536Z,6.59
2023-08-15T08:41:04.359Z,6.65
2023-08-15T08:42:40.853Z,6.64
2023-08-15T08:44:12.252Z,6.77
2023-08-15T08:45:43.734Z,6.77
2023-08-15T08:47:15.188Z,6.67
2023-08-15T08:48:46.780Z,6.98
2023-08-15T08:50:18.349Z,6.42
2023-08-15T08:51:49.897Z,6.28
2023-08-15T08:53:21.356Z,6.14
2023-08-15T08:56:27.398Z,5.57
2023-08-15T08:57:58.974Z,5.53
2023-08-15T08:59:30.397Z,5.42
2023-08-15T09:01:01.797Z,5.69
2023-08-15T09:02:33.294Z,5.43
2023-08-15T09:04:04.868Z,5.85
2023-08-15T09:05:36.536Z,5.37
2023-08-15T09:07:07.968Z,5.24
2023-08-15T09:08:39.406Z,4.89
2023-08-15T09:10:11.202Z,4.71
2023-08-15T09:11:42.727Z,4.92
2023-08-15T09:13:14.143Z,4.52
2023-08-15T09:14:45.598Z,4.56
2023-08-15T09:16:17.135Z,5.04
2023-08-15T09:17:48.714Z,4.49
2023-08-15T09:19:20.242Z,4.01
2023-08-15T09:20:51.758Z,4.25
2023-08-15T09:22:23.376Z,4.21
2023-08-15T09:23:54.967Z,3.99
2023-08-15T09:25:26.788Z,3.84
2023-08-15T09:26:58.306Z,4.10
2023-08-15T09:28:29.744Z,4.35
2023-08-15T09:30:01.202Z,4.12
2023-08-15T09:31:32.843Z,4.42
2023-08-15T09:33:04.456Z,4.10
2023-08-15T09:34:36.149Z,4.23
2023-08-15T09:36:07.777Z,4.00
2023-08-15T09:37:39.260Z,4.15
2023-08-15T09:39:10.750Z,4.72
2023-08-15T09:40:42.184Z,4.10
2023-08-15T09:42:13.725Z,4.04
2023-08-15T09:43:45.252Z,3.89
2023-08-15T09:45:16.747Z,4.03
2023-08-15T09:46:49.308Z,4.11
2023-08-15T09:48:22.722Z,4.03
2023-08-15T09:49:54.329Z,3.77
2023-08-15T09:51:25.786Z,3.31
2023-08-15T09:52:57.500Z,3.19
2023-08-15T09:54:28.988Z,2.98
2023-08-15T09:56:00.448Z,2.84
2023-08-15T09:57:31.888Z,2.74
2023-08-15T09:59:03.334Z,2.90
2023-08-15T10:00:34.880Z,2.89
2023-08-15T10:02:06.454Z,2.85
2023-08-15T10:03:37.928Z,2.94
2023-08-15T10:05:09.399Z,2.86
2023-08-15T10:06:40.871Z,2.79
2023-08-15T10:08:12.476Z,2.73
2023-08-15T10:09:44.091Z,3.05
2023-08-15T10:11:15.583Z,2.72
2023-08-15T10:12:47.020Z,2.96
2023-08-15T10:14:18.449Z,2.70
2023-08-15T10:15:49.916Z,2.70
2023-08-15T10:17:21.843Z,2.64
2023-08-15T10:18:53.582Z,2.37
2023-08-15T10:20:25.063Z,2.55
2023-08-15T10:21:56.478Z,2.57
2023-08-15T10:23:27.911Z,2.30
2023-08-15T10:24:59.405Z,2.20
2023-08-15T10:26:31.220Z,2.28
2023-08-15T10:28:02.667Z,2.25
2023-08-15T10:29:34.131Z,2.35
2023-08-15T10:31:05.656Z,2.34
2023-08-15T10:32:37.194Z,2.19
2023-08-15T10:34:08.740Z,2.07
2023-08-15T10:35:40.281Z,2.04
2023-08-15T10:37:11.728Z,2.25
2023-08-15T10:38:43.406Z,2.02
2023-08-15T10:40:15.554Z,2.28
2023-08-15T10:41:47.038Z,2.48
2023-08-15T10:43:18.481Z,2.35
2023-08-15T10:44:49.892Z,2.46
2023-08-15T10:46:21.648Z,2.48
2023-08-15T10:47:53.200Z,2.85
2023-08-15T10:49:24.692Z,2.82
2023-08-15T10:50:56.262Z,2.66
2023-08-15T10:52:27.887Z,2.39
2023-08-15T10:53:59.917Z,2.30
2023-08-15T10:55:31.459Z,2.27
2023-08-15T10:57:03.135Z,2.57
2023-08-15T10:58:34.623Z,2.34
2023-08-15T11:00:06.086Z,2.20
2023-08-15T11:01:37.800Z,2.18
2023-08-15T11:03:09.486Z,2.22
2023-08-15T11:04:42.740Z,2.24
2023-08-15T11:06:14.518Z,2.35
2023-08-15T11:07:46.018Z,2.39
2023-08-15T11:09:17.521Z,2.38
2023-08-15T11:10:49.428Z,2.61
2023-08-15T11:12:20.902Z,2.47
2023-08-15T11:13:52.504Z,2.34
2023-08-15T11:15:24.099Z,2.40
2023-08-15T11:16:55.612Z,2.31
2023-08-15T11:18:27.429Z,2.18
2023-08-15T11:19:58.970Z,2.12
2023-08-15T11:21:30.431Z,2.39
2023-08-15T11:23:01.997Z,2.02
2023-08-15T11:24:33.509Z,2.35
2023-08-15T11:26:04.968Z,2.08
2023-08-15T11:27:36.640Z,2.08
2023-08-15T11:29:08.070Z,2.23
2023-08-15T11:30:39.725Z,2.08
2023-08-15T11:32:11.190Z,2.40
2023-08-15T11:33:42.738Z,2.14
2023-08-15T11:35:14.169Z,2.23
2023-08-15T11:36:46.025Z,2.49
2023-08-15T11:38:17.645Z,2.29
2023-08-15T11:39:49.139Z,2.36
2023-08-15T11:41:20.680Z,2.24
2023-08-15T11:42:52.181Z,1.98
2023-08-15T11:44:23.858Z,1.96
2023-08-15T11:45:55.500Z,2.25
2023-08-15T11:47:27.145Z,1.79
2023-08-15T11:49:06.963Z,1.93
2023-08-15T11:50:44.710Z,2.01
2023-08-15T11:52:17.154Z,1.90
2023-08-15T11:53:48.743Z,1.99
2023-08-15T11:55:20.312Z,1.78
2023-08-15T11:56:51.878Z,1.84
2023-08-15T11:58:23.709Z,1.87
2023-08-15T11:59:55.248Z,1.81
2023-08-15T12:01:26.872Z,1.92
2023-08-15T12:02:58.630Z,1.90
2023-08-15T12:04:30.249Z,1.86
2023-08-15T12:06:02.078Z,2.00
2023-08-15T12:07:33.590Z,1.83
2023-08-15T12:09:07.013Z,1.97
2023-08-15T12:10:41.146Z,1.90
2023-08-15T12:12:14.408Z,2.00
2023-08-15T12:13:45.923Z,2.02
2023-08-15T12:15:17.503Z,2.07
2023-08-15T12:16:49.051Z,1.92
2023-08-15T12:18:20.604Z,2.12
2023-08-15T12:19:52.185Z,1.91
2023-08-15T12:21:23.910Z,2.18
2023-08-15T12:22:55.890Z,1.91
2023-08-15T12:24:27.508Z,1.91
2023-08-15T12:25:59.126Z,2.03
2023-08-15T12:27:30.788Z,1.88
2023-08-15T12:29:03.520Z,2.00
2023-08-15T12:30:35.137Z,2.05
2023-08-15T12:32:06.858Z,1.97
2023-08-15T12:33:47.070Z,2.02
2023-08-15T12:35:19.890Z,2.01
2023-08-15T12:36:57.268Z,2.03
2023-08-15T12:39:15.603Z,1.99
2023-08-15T12:41:10.938Z,2.01
2023-08-15T12:43:20.524Z,2.25
2023-08-15T12:45:05.807Z,2.07
2023-08-15T12:46:47.482Z,2.59
2023-08-15T12:48:19.063Z,2.35
2023-08-15T12:49:50.743Z,2.02
2023-08-15T12:51:22.420Z,1.79
2023-08-15T12:52:53.965Z,1.98
2023-08-15T12:54:25.568Z,2.05
2023-08-15T12:55:57.387Z,1.90
2023-08-15T12:57:29.004Z,1.83
2023-08-15T12:59:00.642Z,1.79
2023-08-15T13:00:32.467Z,1.79
2023-08-15T13:02:04.054Z,1.77
2023-08-15T13:03:35.767Z,1.88
2023-08-15T13:05:07.456Z,2.20
2023-08-15T13:07:08.939Z,2.09
2023-08-15T13:08:40.587Z,1.90
2023-08-15T13:10:12.385Z,2.00
2023-08-15T13:11:44.076Z,1.98
2023-08-15T13:13:15.648Z,2.03
2023-08-15T13:14:47.335Z,2.09
2023-08-15T13:16:18.950Z,2.13
2023-08-15T13:17:55.999Z,2.09
2023-08-15T13:19:27.704Z,2.04
2023-08-15T13:20:59.254Z,1.89
2023-08-15T13:22:30.878Z,2.24
2023-08-15T13:24:02.456Z,2.34
2023-08-15T13:25:34.131Z,2.27
2023-08-15T13:27:05.733Z,2.09
2023-08-15T13:28:37.323Z,1.96
2023-08-15T13:30:08.937Z,2.17
2023-08-15T13:31:40.614Z,2.06
2023-08-15T13:33:12.148Z,1.89
2023-08-15T13:34:43.729Z,1.84
2023-08-15T13:36:15.378Z,1.85
2023-08-15T13:37:47.078Z,1.75
2023-08-15T13:39:18.724Z,1.85
2023-08-15T13:40:50.303Z,1.67
2023-08-15T13:42:36.095Z,1.78
2023-08-15T13:44:10.495Z,1.76
2023-08-15T13:45:42.178Z,1.96
2023-08-15T13:47:13.705Z,1.79
2023-08-15T13:48:45.306Z,2.19
2023-08-15T13:50:17.207Z,1.81
2023-08-15T13:51:48.812Z,1.98
2023-08-15T13:53:20.374Z,1.77
2023-08-15T13:54:52.197Z,1.96
2023-08-15T13:56:23.815Z,1.87
2023-08-15T13:57:55.397Z,2.10
2023-08-15T13:59:27.162Z,2.09
2023-08-15T14:00:58.761Z,1.88
2023-08-15T14:02:31.443Z,1.81
2023-08-15T14:04:03.853Z,2.00
2023-08-15T14:05:35.424Z,1.84
2023-08-15T14:07:07.031Z,2.11
2023-08-15T14:10:10.228Z,1.88
2023-08-15T14:11:42.068Z,1.94
2023-08-15T14:13:13.628Z,1.91
2023-08-15T14:14:45.206Z,2.04
2023-08-15T14:16:16.870Z,2.07
2023-08-15T14:17:49.591Z,1.90
2023-08-15T14:19:21.252Z,2.08
2023-08-15T14:20:52.801Z,2.03
2023-08-15T14:22:24.596Z,1.89
2023-08-15T14:23:56.475Z,1.79
2023-08-15T14:25:28.122Z,2.04
2023-08-15T14:26:59.646Z,2.03
2023-08-15T14:28:31.220Z,1.86
2023-08-15T14:30:02.785Z,1.93
2023-08-15T14:31:34.459Z,2.03
2023-08-15T14:33:06.368Z,1.86
2023-08-15T14:34:38.024Z,2.18
2023-08-15T14:36:09.582Z,2.30
2023-08-15T14:37:41.205Z,2.12
2023-08-15T14:39:12.759Z,2.03
2023-08-15T14:40:44.321Z,1.99
2023-08-15T14:42:15.884Z,1.96
2023-08-15T14:43:47.448Z,2.21
2023-08-15T14:45:44.303Z,2.08
2023-08-15T14:47:15.826Z,2.10
2023-08-15T14:48:47.348Z,1.96
2023-08-15T14:50:19.118Z,2.00
2023-08-15T14:51:50.858Z,2.05
2023-08-15T14:53:22.587Z,2.14
2023-08-15T14:54:54.213Z,1.97
2023-08-15T14:56:25.746Z,1.95
2023-08-15T14:57:57.340Z,1.88
2023-08-15T14:59:28.875Z,1.88
2023-08-15T15:01:00.437Z,1.95
2023-08-15T15:02:32.072Z,2.14
2023-08-15T15:04:03.679Z,2.20
2023-08-15T15:05:35.299Z,2.07
2023-08-15T15:07:07.143Z,1.95
2023-08-15T15:08:38.826Z,2.07
2023-08-15T15:10:10.390Z,2.08
2023-08-15T15:11:42.111Z,2.04
2023-08-15T15:13:13.765Z,2.03
2023-08-15T15:14:45.350Z,2.12
2023-08-15T15:16:37.056Z,2.11
2023-08-15T15:18:08.740Z,1.88
2023-08-15T15:19:40.622Z,1.87
2023-08-15T15:21:12.194Z,1.81
2023-08-15T15:22:43.812Z,1.85
2023-08-15T15:24:15.372Z,1.81
2023-08-15T15:25:46.945Z,1.93
2023-08-15T15:27:18.486Z,2.12
2023-08-15T15:28:50.101Z,2.21
2023-08-15T15:30:21.714Z,2.11
2023-08-15T15:31:53.442Z,2.02
2023-08-15T15:33:25.047Z,2.29
2023-08-15T15:34:56.661Z,2.06
2023-08-15T15:36:28.253Z,2.04
2023-08-15T15:37:59.830Z,2.14
2023-08-15T15:39:31.367Z,2.12
2023-08-15T15:41:02.993Z,1.99
2023-08-15T15:42:34.966Z,1.97
2023-08-15T15:44:07.629Z,2.00
2023-08-15T15:45:39.262Z,2.07
2023-08-15T15:47:11.015Z,2.08
2023-08-15T15:48:43.255Z,2.30
2023-08-15T15:50:14.871Z,2.50
2023-08-15T15:51:46.755Z,2.32
2023-08-15T15:53:18.324Z,2.18
2023-08-15T15:54:49.856Z,2.26
2023-08-15T15:56:21.458Z,2.09
2023-08-15T15:57:53.376Z,2.06
2023-08-15T15:59:25.033Z,2.23
2023-08-15T16:00:56.691Z,2.36
2023-08-15T16:02:28.326Z,2.38
2023-08-15T16:04:00.165Z,2.24
2023-08-15T16:05:31.833Z,2.13
2023-08-15T16:07:03.451Z,2.13
2023-08-15T16:08:35.780Z,2.18
2023-08-15T16:10:07.382Z,2.24
2023-08-15T16:11:39.349Z,2.35
2023-08-15T16:13:10.913Z,2.07
2023-08-15T16:14:42.572Z,2.30
2023-08-15T16:16:14.300Z,2.26
2023-08-15T16:17:46.088Z,2.20
2023-08-15T16:19:17.844Z,2.40
2023-08-15T16:20:49.514Z,2.43
2023-08-15T16:22:21.409Z,2.19
2023-08-15T16:23:53.400Z,2.23
2023-08-15T16:25:25.026Z,2.34
2023-08-15T16:26:56.573Z,2.15
2023-08-15T16:28:28.190Z,2.34
2023-08-15T16:30:14.885Z,2.43
2023-08-15T16:31:48.057Z,2.45
2023-08-15T16:33:19.911Z,2.28
2023-08-15T16:34:51.591Z,2.25
2023-08-15T16:36:23.333Z,2.33
2023-08-15T16:37:54.948Z,2.29
2023-08-15T16:39:26.510Z,2.52
2023-08-15T16:40:58.074Z,2.21
2023-08-15T16:42:29.668Z,2.08
2023-08-15T16:44:01.265Z,2.13
2023-08-15T16:45:32.815Z,2.38
2023-08-15T16:47:04.934Z,2.39
2023-08-15T16:48:36.671Z,2.54
2023-08-15T16:50:08.168Z,2.52
2023-08-15T16:52:10.384Z,2.27
2023-08-15T16:53:41.973Z,2.58
2023-08-15T16:55:13.489Z,2.37
2023-08-15T16:56:45.230Z,2.51
2023-08-15T16:58:16.834Z,2.58
2023-08-15T16:59:48.502Z,2.62
2023-08-15T17:01:20.386Z,2.42
2023-08-15T17:02:52.141Z,2.67
2023-08-15T17:04:24.198Z,2.43
2023-08-15T17:05:55.811Z,2.38
2023-08-15T17:07:27.383Z,2.65
2023-08-15T17:08:58.952Z,2.58
2023-08-15T17:10:30.652Z,2.48
2023-08-15T17:12:02.254Z,2.59
2023-08-15T17:13:33.840Z,2.75
2023-08-15T17:15:05.418Z,2.50
2023-08-15T17:16:36.992Z,2.33
2023-08-15T17:18:08.703Z,2.63
2023-08-15T17:19:40.424Z,2.59
2023-08-15T17:21:11.955Z,2.65
2023-08-15T17:22:43.762Z,2.53
2023-08-15T17:24:15.260Z,2.57
2023-08-15T17:25:48.412Z,2.75
2023-08-15T17:27:21.736Z,2.66
2023-08-15T17:28:53.635Z,2.61
2023-08-15T17:30:25.229Z,2.55
2023-08-15T17:31:56.897Z,2.53
2023-08-15T17:33:28.615Z,2.68
2023-08-15T17:35:00.396Z,2.61
2023-08-15T17:36:32.069Z,2.82
2023-08-15T17:38:03.850Z,2.83
2023-08-15T17:39:35.478Z,2.80
2023-08-15T17:41:07.020Z,2.92
2023-08-15T17:42:38.616Z,2.86
2023-08-15T17:44:10.128Z,2.70
2023-08-15T17:45:41.909Z,2.87
2023-08-15T17:47:13.434Z,2.84
2023-08-15T17:48:44.998Z,2.76
2023-08-15T17:50:16.643Z,2.85
2023-08-15T17:51:48.196Z,2.90
2023-08-15T17:53:21.082Z,2.86
2023-08-15T17:54:54.298Z,2.90
2023-08-15T17:56:25.804Z,2.94
2023-08-15T17:57:57.365Z,3.22
2023-08-15T17:59:28.880Z,3.13
2023-08-15T18:01:00.744Z,2.99
2023-08-15T18:02:32.429Z,3.08
2023-08-15T18:04:06.074Z,3.07
2023-08-15T18:05:37.909Z,3.12
2023-08-15T18:07:09.403Z,3.46
2023-08-15T18:08:40.936Z,4.20
2023-08-15T18:10:12.566Z,3.77
2023-08-15T18:11:44.138Z,3.54
2023-08-15T18:13:15.741Z,3.24
2023-08-15T18:14:47.304Z,3.08
2023-08-15T18:16:18.819Z,3.41
2023-08-15T18:17:50.464Z,3.37
2023-08-15T18:19:22.010Z,3.14
2023-08-15T18:20:53.528Z,3.08
2023-08-15T18:22:25.189Z,3.26
2023-08-15T18:23:59.064Z,3.36
2023-08-15T18:25:30.649Z,3.21
2023-08-15T18:27:02.163Z,3.45
2023-08-15T18:28:33.685Z,3.29
2023-08-15T18:30:05.161Z,3.18
2023-08-15T18:31:36.726Z,3.17
2023-08-15T18:33:08.394Z,3.18
2023-08-15T18:34:39.935Z,3.09
2023-08-15T18:36:11.429Z,3.24
2023-08-15T18:37:43.040Z,3.13
2023-08-15T18:39:14.568Z,3.22
2023-08-15T18:40:46.145Z,3.28
2023-08-15T18:42:17.733Z,3.54
2023-08-15T18:43:49.475Z,3.40
2023-08-15T18:45:20.964Z,3.96
2023-08-15T18:46:52.546Z,3.65
2023-08-15T18:48:24.082Z,3.47
2023-08-15T18:49:55.878Z,3.45
2023-08-15T18:51:27.394Z,3.56
2023-08-15T18:52:58.927Z,3.23
2023-08-15T18:54:30.398Z,3.15
2023-08-15T18:56:01.836Z,3.17
2023-08-15T18:57:33.487Z,3.06
2023-08-15T18:59:05.181Z,2.99
2023-08-15T19:00:36.644Z,2.90
2023-08-15T19:02:08.099Z,2.93
2023-08-15T19:03:39.676Z,2.99
2023-08-15T19:05:11.349Z,3.34
2023-08-15T19:06:42.884Z,3.36
2023-08-15T19:08:14.527Z,3.40
2023-08-15T19:09:46.029Z,3.51
2023-08-15T19:11:17.503Z,3.38
2023-08-15T19:12:48.982Z,3.45
2023-08-15T19:14:20.664Z,3.57
2023-08-15T19:16:16.340Z,4.67
2023-08-15T19:17:47.897Z,3.46
2023-08-15T19:19:19.359Z,3.66
2023-08-15T19:20:51.226Z,3.83
2023-08-15T19:22:23.259Z,3.89
2023-08-15T19:23:55.018Z,4.14
2023-08-15T19:25:26.414Z,3.55
2023-08-15T19:26:58.147Z,4.14
2023-08-15T19:28:29.677Z,3.35
2023-08-15T19:30:01.119Z,3.65
2023-08-15T19:31:32.699Z,3.82
2023-08-15T19:33:04.332Z,3.68
2023-08-15T19:34:41.293Z,3.33
2023-08-15T19:36:12.956Z,3.01
2023-08-15T19:37:44.444Z,3.15
2023-08-15T19:39:15.913Z,3.33
2023-08-15T19:40:47.407Z,3.32
2023-08-15T19:42:18.917Z,3.09
2023-08-15T19:43:50.654Z,2.94
2023-08-15T19:45:22.169Z,2.95
2023-08-15T19:46:53.813Z,2.98
2023-08-15T19:48:25.374Z,2.85
2023-08-15T19:49:56.831Z,2.92
2023-08-15T19:51:28.320Z,3.29
2023-08-15T19:52:59.769Z,3.28
2023-08-15T19:54:31.331Z,3.64
2023-08-15T19:56:02.874Z,3.42
2023-08-15T19:57:34.402Z,3.62
2023-08-15T19:59:05.929Z,3.66
2023-08-15T20:00:47.708Z,3.55
2023-08-15T20:02:19.296Z,3.26
2023-08-15T20:03:50.831Z,3.33
2023-08-15T20:05:22.326Z,3.25
2023-08-15T20:06:54.074Z,3.28
2023-08-15T20:08:25.558Z,3.32
2023-08-15T20:10:09.795Z,3.24
2023-08-15T20:11:43.556Z,3.08
2023-08-15T20:13:15.224Z,3.31
2023-08-15T20:14:46.668Z,3.29
2023-08-15T20:16:18.185Z,3.19
2023-08-15T20:17:50.842Z,3.39
2023-08-15T20:19:22.310Z,3.16
2023-08-15T20:20:53.768Z,3.22
2023-08-15T20:22:25.514Z,3.33
2023-08-15T20:23:57.581Z,3.21
2023-08-15T20:25:29.201Z,3.57
2023-08-15T20:27:01.078Z,3.24
2023-08-15T20:28:32.719Z,3.09
2023-08-15T20:30:04.417Z,3.11